sensor_id;sensor_type;location;lat;lon;timestamp;P1;durP1;ratioP1;P2;durP2;ratioP2
18983;SDS011;9626;52.552;13.436;2023-04-24T00:01:16;4.53;;;3.60;;
18983;SDS011;9626;52.552;13.436;2023-04-24T00:03:42;4.17;;;3.30;;
18983;SDS011;9626;52.552;13.436;2023-04-24T00:06:08;3.80;;;3.50;;
18983;SDS011;9626;52.552;13.436;2023-04-24T00:08:35;3.60;;;3.30;;
18983;SDS011;9626;52.552;13.436;2023-04-24T00:11:01;3.43;;;3.13;;
18983;SDS011;9626;52.552;13.436;2023-04-24T00:13:27;3.63;;;3.33;;
18983;SDS011;9626;52.552;13.436;2023-04-24T00:15:56;3.97;;;3.60;;
18983;SDS011;9626;52.552;13.436;2023-04-24T00:18:22;3.90;;;3.60;;
18983;SDS011;9626;52.552;13.436;2023-04-24T00:20:48;3.93;;;3.60;;
18983;SDS011;9626;52.552;13.436;2023-04-24T00:23:14;3.93;;;3.63;;
18983;SDS011;9626;52.552;13.436;2023-04-24T00:25:40;4.77;;;3.80;;
18983;SDS011;9626;52.552;13.436;2023-04-24T00:28:06;3.83;;;3.53;;
18983;SDS011;9626;52.552;13.436;2023-04-24T00:30:32;3.73;;;3.43;;
18983;SDS011;9626;52.552;13.436;2023-04-24T00:32:58;6.43;;;3.50;;
18983;SDS011;9626;52.552;13.436;2023-04-24T00:35:24;3.90;;;3.50;;
18983;SDS011;9626;52.552;13.436;2023-04-24T00:37:50;3.53;;;3.23;;
18983;SDS011;9626;52.552;13.436;2023-04-24T00:40:16;4.27;;;3.50;;
18983;SDS011;9626;52.552;13.436;2023-04-24T00:42:43;4.30;;;3.33;;
18983;SDS011;9626;52.552;13.436;2023-04-24T00:45:09;4.90;;;3.80;;
18983;SDS011;9626;52.552;13.436;2023-04-24T00:47:36;3.70;;;3.33;;
18983;SDS011;9626;52.552;13.436;2023-04-24T00:50:02;3.50;;;3.20;;
18983;SDS011;9626;52.552;13.436;2023-04-24T00:52:29;3.87;;;3.57;;
18983;SDS011;9626;52.552;13.436;2023-04-24T00:54:57;3.67;;;3.33;;
18983;SDS011;9626;52.552;13.436;2023-04-24T00:57:24;4.97;;;3.53;;
18983;SDS011;9626;52.552;13.436;2023-04-24T00:59:51;4.13;;;3.43;;
18983;SDS011;9626;52.552;13.436;2023-04-24T01:02:18;4.27;;;3.70;;
18983;SDS011;9626;52.552;13.436;2023-04-24T01:04:46;4.43;;;4.00;;
18983;SDS011;9626;52.552;13.436;2023-04-24T01:07:12;4.03;;;3.63;;
18983;SDS011;9626;52.552;13.436;2023-04-24T01:09:38;4.27;;;3.87;;
18983;SDS011;9626;52.552;13.436;2023-04-24T01:12:07;3.83;;;3.50;;
18983;SDS011;9626;52.552;13.436;2023-04-24T01:14:33;5.20;;;4.10;;
18983;SDS011;9626;52.552;13.436;2023-04-24T01:16:59;4.17;;;3.77;;
18983;SDS011;9626;52.552;13.436;2023-04-24T01:19:25;4.40;;;4.00;;
18983;SDS011;9626;52.552;13.436;2023-04-24T01:21:53;3.93;;;3.63;;
18983;SDS011;9626;52.552;13.436;2023-04-24T01:24:22;4.60;;;4.20;;
18983;SDS011;9626;52.552;13.436;2023-04-24T01:26:48;4.23;;;3.83;;
18983;SDS011;9626;52.552;13.436;2023-04-24T01:29:14;4.13;;;3.73;;
18983;SDS011;9626;52.552;13.436;2023-04-24T01:31:40;4.17;;;3.83;;
18983;SDS011;9626;52.552;13.436;2023-04-24T01:34:07;4.73;;;3.90;;
18983;SDS011;9626;52.552;13.436;2023-04-24T01:36:33;4.67;;;4.17;;
18983;SDS011;9626;52.552;13.436;2023-04-24T01:39:00;5.33;;;3.70;;
18983;SDS011;9626;52.552;13.436;2023-04-24T01:41:26;4.90;;;4.23;;
18983;SDS011;9626;52.552;13.436;2023-04-24T01:43:53;6.77;;;5.80;;
18983;SDS011;9626;52.552;13.436;2023-04-24T01:46:20;6.00;;;5.40;;
18983;SDS011;9626;52.552;13.436;2023-04-24T01:48:46;4.57;;;4.17;;
18983;SDS011;9626;52.552;13.436;2023-04-24T01:51:13;6.73;;;4.00;;
18983;SDS011;9626;52.552;13.436;2023-04-24T01:53:39;4.57;;;4.03;;
18983;SDS011;9626;52.552;13.436;2023-04-24T01:56:05;4.33;;;3.93;;
18983;SDS011;9626;52.552;13.436;2023-04-24T01:58:31;4.77;;;4.37;;
18983;SDS011;9626;52.552;13.436;2023-04-24T02:00:57;5.03;;;4.57;;
18983;SDS011;9626;52.552;13.436;2023-04-24T02:03:25;5.33;;;4.27;;
18983;SDS011;9626;52.552;13.436;2023-04-24T02:05:52;6.00;;;5.50;;
18983;SDS011;9626;52.552;13.436;2023-04-24T02:08:18;4.43;;;4.03;;
18983;SDS011;9626;52.552;13.436;2023-04-24T02:10:44;5.03;;;4.23;;
18983;SDS011;9626;52.552;13.436;2023-04-24T02:13:10;5.20;;;4.10;;
18983;SDS011;9626;52.552;13.436;2023-04-24T02:15:36;6.10;;;4.63;;
18983;SDS011;9626;52.552;13.436;2023-04-24T02:18:02;5.17;;;4.67;;
18983;SDS011;9626;52.552;13.436;2023-04-24T02:20:28;5.70;;;5.20;;
18983;SDS011;9626;52.552;13.436;2023-04-24T02:22:54;5.30;;;4.90;;
18983;SDS011;9626;52.552;13.436;2023-04-24T02:25:20;5.10;;;4.60;;
18983;SDS011;9626;52.552;13.436;2023-04-24T02:27:47;5.73;;;4.87;;
18983;SDS011;9626;52.552;13.436;2023-04-24T02:30:13;4.80;;;4.40;;
18983;SDS011;9626;52.552;13.436;2023-04-24T02:32:39;5.10;;;4.40;;
18983;SDS011;9626;52.552;13.436;2023-04-24T02:35:05;6.13;;;5.20;;
18983;SDS011;9626;52.552;13.436;2023-04-24T02:37:32;4.70;;;4.30;;
18983;SDS011;9626;52.552;13.436;2023-04-24T02:39:58;5.00;;;4.57;;
18983;SDS011;9626;52.552;13.436;2023-04-24T02:42:24;5.17;;;4.67;;
18983;SDS011;9626;52.552;13.436;2023-04-24T02:44:50;5.10;;;4.60;;
18983;SDS011;9626;52.552;13.436;2023-04-24T02:47:16;5.80;;;5.30;;
18983;SDS011;9626;52.552;13.436;2023-04-24T02:49:42;5.17;;;4.70;;
18983;SDS011;9626;52.552;13.436;2023-04-24T02:52:09;5.13;;;4.73;;
18983;SDS011;9626;52.552;13.436;2023-04-24T02:54:35;6.90;;;5.80;;
18983;SDS011;9626;52.552;13.436;2023-04-24T02:57:01;5.97;;;5.37;;
18983;SDS011;9626;52.552;13.436;2023-04-24T02:59:27;6.20;;;5.43;;
18983;SDS011;9626;52.552;13.436;2023-04-24T03:01:54;7.50;;;6.33;;
18983;SDS011;9626;52.552;13.436;2023-04-24T03:04:20;6.73;;;5.57;;
18983;SDS011;9626;52.552;13.436;2023-04-24T03:06:47;10.60;;;8.73;;
18983;SDS011;9626;52.552;13.436;2023-04-24T03:09:13;57.80;;;34.57;;
18983;SDS011;9626;52.552;13.436;2023-04-24T03:11:39;8.40;;;7.37;;
18983;SDS011;9626;52.552;13.436;2023-04-24T03:14:06;7.30;;;5.47;;
18983;SDS011;9626;52.552;13.436;2023-04-24T03:16:32;6.63;;;5.67;;
18983;SDS011;9626;52.552;13.436;2023-04-24T03:18:58;5.57;;;5.07;;
18983;SDS011;9626;52.552;13.436;2023-04-24T03:21:24;7.47;;;5.57;;
18983;SDS011;9626;52.552;13.436;2023-04-24T03:23:50;7.43;;;5.73;;
18983;SDS011;9626;52.552;13.436;2023-04-24T03:26:16;6.10;;;5.60;;
18983;SDS011;9626;52.552;13.436;2023-04-24T03:28:42;6.67;;;5.27;;
18983;SDS011;9626;52.552;13.436;2023-04-24T03:31:08;6.73;;;5.63;;
18983;SDS011;9626;52.552;13.436;2023-04-24T03:33:34;6.70;;;6.00;;
18983;SDS011;9626;52.552;13.436;2023-04-24T03:36:01;6.30;;;5.70;;
18983;SDS011;9626;52.552;13.436;2023-04-24T03:38:27;6.10;;;5.50;;
18983;SDS011;9626;52.552;13.436;2023-04-24T03:40:53;6.73;;;5.47;;
18983;SDS011;9626;52.552;13.436;2023-04-24T03:43:19;6.03;;;5.43;;
18983;SDS011;9626;52.552;13.436;2023-04-24T03:45:45;5.37;;;4.87;;
18983;SDS011;9626;52.552;13.436;2023-04-24T03:48:11;5.63;;;5.07;;
18983;SDS011;9626;52.552;13.436;2023-04-24T03:50:37;10.00;;;5.90;;
18983;SDS011;9626;52.552;13.436;2023-04-24T03:53:03;7.43;;;5.20;;
18983;SDS011;9626;52.552;13.436;2023-04-24T03:55:29;5.50;;;5.00;;
18983;SDS011;9626;52.552;13.436;2023-04-24T03:57:55;6.67;;;4.90;;
18983;SDS011;9626;52.552;13.436;2023-04-24T04:00:21;5.43;;;4.93;;
18983;SDS011;9626;52.552;13.436;2023-04-24T04:02:47;5.90;;;5.30;;
18983;SDS011;9626;52.552;13.436;2023-04-24T04:05:13;5.53;;;5.03;;
18983;SDS011;9626;52.552;13.436;2023-04-24T04:07:39;5.97;;;5.03;;
18983;SDS011;9626;52.552;13.436;2023-04-24T04:10:06;5.43;;;4.93;;
18983;SDS011;9626;52.552;13.436;2023-04-24T04:12:33;5.10;;;4.67;;
18983;SDS011;9626;52.552;13.436;2023-04-24T04:14:59;5.13;;;4.63;;
18983;SDS011;9626;52.552;13.436;2023-04-24T04:17:25;6.37;;;4.60;;
18983;SDS011;9626;52.552;13.436;2023-04-24T04:19:51;5.40;;;4.90;;
18983;SDS011;9626;52.552;13.436;2023-04-24T04:22:17;5.67;;;4.70;;
18983;SDS011;9626;52.552;13.436;2023-04-24T04:24:43;5.03;;;4.47;;
18983;SDS011;9626;52.552;13.436;2023-04-24T04:27:10;5.47;;;4.87;;
18983;SDS011;9626;52.552;13.436;2023-04-24T04:29:36;6.57;;;4.63;;
18983;SDS011;9626;52.552;13.436;2023-04-24T04:32:02;5.50;;;4.70;;
18983;SDS011;9626;52.552;13.436;2023-04-24T04:34:29;5.73;;;4.60;;
18983;SDS011;9626;52.552;13.436;2023-04-24T04:36:57;7.53;;;5.03;;
18983;SDS011;9626;52.552;13.436;2023-04-24T04:39:26;5.40;;;4.90;;
18983;SDS011;9626;52.552;13.436;2023-04-24T04:41:53;5.60;;;4.93;;
18983;SDS011;9626;52.552;13.436;2023-04-24T04:44:21;5.23;;;4.80;;
18983;SDS011;9626;52.552;13.436;2023-04-24T04:46:47;6.17;;;4.90;;
18983;SDS011;9626;52.552;13.436;2023-04-24T04:49:13;5.63;;;5.13;;
18983;SDS011;9626;52.552;13.436;2023-04-24T04:51:42;8.60;;;5.17;;
18983;SDS011;9626;52.552;13.436;2023-04-24T04:54:08;5.73;;;4.80;;
18983;SDS011;9626;52.552;13.436;2023-04-24T04:56:34;7.97;;;5.37;;
18983;SDS011;9626;52.552;13.436;2023-04-24T04:59:00;5.50;;;4.80;;
18983;SDS011;9626;52.552;13.436;2023-04-24T05:01:26;6.23;;;4.83;;
18983;SDS011;9626;52.552;13.436;2023-04-24T05:03:53;7.73;;;4.73;;
18983;SDS011;9626;52.552;13.436;2023-04-24T05:06:19;5.43;;;4.93;;
18983;SDS011;9626;52.552;13.436;2023-04-24T05:08:45;4.43;;;4.03;;
18983;SDS011;9626;52.552;13.436;2023-04-24T05:11:11;4.87;;;4.40;;
18983;SDS011;9626;52.552;13.436;2023-04-24T05:13:37;4.50;;;4.10;;
18983;SDS011;9626;52.552;13.436;2023-04-24T05:16:03;4.60;;;4.20;;
18983;SDS011;9626;52.552;13.436;2023-04-24T05:18:29;4.97;;;4.40;;
18983;SDS011;9626;52.552;13.436;2023-04-24T05:20:55;7.00;;;4.47;;
18983;SDS011;9626;52.552;13.436;2023-04-24T05:23:21;6.80;;;4.40;;
18983;SDS011;9626;52.552;13.436;2023-04-24T05:25:48;5.67;;;4.43;;
18983;SDS011;9626;52.552;13.436;2023-04-24T05:28:14;8.30;;;4.13;;
18983;SDS011;9626;52.552;13.436;2023-04-24T05:30:42;9.80;;;3.93;;
18983;SDS011;9626;52.552;13.436;2023-04-24T05:33:08;5.57;;;4.20;;
18983;SDS011;9626;52.552;13.436;2023-04-24T05:35:35;5.63;;;3.70;;
18983;SDS011;9626;52.552;13.436;2023-04-24T05:38:01;6.00;;;3.57;;
18983;SDS011;9626;52.552;13.436;2023-04-24T05:40:27;4.63;;;3.50;;
18983;SDS011;9626;52.552;13.436;2023-04-24T05:42:53;4.87;;;3.17;;
18983;SDS011;9626;52.552;13.436;2023-04-24T05:45:20;3.77;;;2.90;;
18983;SDS011;9626;52.552;13.436;2023-04-24T05:47:46;4.43;;;2.97;;
18983;SDS011;9626;52.552;13.436;2023-04-24T05:50:13;3.20;;;2.83;;
18983;SDS011;9626;52.552;13.436;2023-04-24T05:52:40;3.23;;;2.83;;
18983;SDS011;9626;52.552;13.436;2023-04-24T05:55:06;3.83;;;2.40;;
18983;SDS011;9626;52.552;13.436;2023-04-24T05:57:33;2.83;;;2.40;;
18983;SDS011;9626;52.552;13.436;2023-04-24T05:59:59;4.63;;;2.13;;
18983;SDS011;9626;52.552;13.436;2023-04-24T06:02:25;3.27;;;2.40;;
18983;SDS011;9626;52.552;13.436;2023-04-24T06:04:51;2.30;;;1.77;;
18983;SDS011;9626;52.552;13.436;2023-04-24T06:07:17;3.57;;;2.30;;
18983;SDS011;9626;52.552;13.436;2023-04-24T06:09:43;5.40;;;1.90;;
18983;SDS011;9626;52.552;13.436;2023-04-24T06:12:10;2.20;;;1.87;;
18983;SDS011;9626;52.552;13.436;2023-04-24T06:14:36;3.20;;;2.20;;
18983;SDS011;9626;52.552;13.436;2023-04-24T06:17:02;3.30;;;2.20;;
18983;SDS011;9626;52.552;13.436;2023-04-24T06:19:28;2.10;;;2.00;;
18983;SDS011;9626;52.552;13.436;2023-04-24T06:21:56;2.63;;;1.87;;
18983;SDS011;9626;52.552;13.436;2023-04-24T06:24:26;3.10;;;2.00;;
18983;SDS011;9626;52.552;13.436;2023-04-24T06:26:53;2.57;;;1.80;;
18983;SDS011;9626;52.552;13.436;2023-04-24T06:29:19;1.97;;;1.80;;
18983;SDS011;9626;52.552;13.436;2023-04-24T06:31:45;2.53;;;2.00;;
18983;SDS011;9626;52.552;13.436;2023-04-24T06:34:11;3.43;;;2.00;;
18983;SDS011;9626;52.552;13.436;2023-04-24T06:36:37;3.00;;;1.93;;
18983;SDS011;9626;52.552;13.436;2023-04-24T06:39:03;4.27;;;2.20;;
18983;SDS011;9626;52.552;13.436;2023-04-24T06:41:29;1.93;;;1.70;;
18983;SDS011;9626;52.552;13.436;2023-04-24T06:43:55;4.83;;;2.20;;
18983;SDS011;9626;52.552;13.436;2023-04-24T06:46:21;2.30;;;2.00;;
18983;SDS011;9626;52.552;13.436;2023-04-24T06:48:49;1.80;;;1.70;;
18983;SDS011;9626;52.552;13.436;2023-04-24T06:51:16;2.63;;;2.00;;
18983;SDS011;9626;52.552;13.436;2023-04-24T06:53:43;1.63;;;1.53;;
18983;SDS011;9626;52.552;13.436;2023-04-24T06:56:09;1.90;;;1.50;;
18983;SDS011;9626;52.552;13.436;2023-04-24T06:58:35;1.83;;;1.40;;
18983;SDS011;9626;52.552;13.436;2023-04-24T07:01:01;2.77;;;1.30;;
18983;SDS011;9626;52.552;13.436;2023-04-24T07:03:27;2.20;;;1.40;;
18983;SDS011;9626;52.552;13.436;2023-04-24T07:05:54;3.60;;;1.60;;
18983;SDS011;9626;52.552;13.436;2023-04-24T07:08:20;1.93;;;1.23;;
18983;SDS011;9626;52.552;13.436;2023-04-24T07:10:48;2.17;;;1.00;;
18983;SDS011;9626;52.552;13.436;2023-04-24T07:13:16;2.17;;;1.37;;
18983;SDS011;9626;52.552;13.436;2023-04-24T07:15:42;1.63;;;1.17;;
18983;SDS011;9626;52.552;13.436;2023-04-24T07:18:09;1.40;;;1.10;;
18983;SDS011;9626;52.552;13.436;2023-04-24T07:20:35;4.80;;;1.40;;
18983;SDS011;9626;52.552;13.436;2023-04-24T07:23:01;1.70;;;1.10;;
18983;SDS011;9626;52.552;13.436;2023-04-24T07:25:27;4.33;;;1.10;;
18983;SDS011;9626;52.552;13.436;2023-04-24T07:27:53;4.40;;;1.00;;
18983;SDS011;9626;52.552;13.436;2023-04-24T07:30:20;4.33;;;1.10;;
18983;SDS011;9626;52.552;13.436;2023-04-24T07:32:46;1.30;;;0.87;;
18983;SDS011;9626;52.552;13.436;2023-04-24T07:35:12;0.83;;;0.80;;
18983;SDS011;9626;52.552;13.436;2023-04-24T07:37:38;2.30;;;0.90;;
18983;SDS011;9626;52.552;13.436;2023-04-24T07:40:04;1.90;;;0.73;;
18983;SDS011;9626;52.552;13.436;2023-04-24T07:42:30;1.43;;;0.70;;
18983;SDS011;9626;52.552;13.436;2023-04-24T07:44:56;1.13;;;0.80;;
18983;SDS011;9626;52.552;13.436;2023-04-24T07:47:23;1.63;;;0.80;;
18983;SDS011;9626;52.552;13.436;2023-04-24T07:49:49;3.20;;;0.87;;
18983;SDS011;9626;52.552;13.436;2023-04-24T07:52:15;1.23;;;0.60;;
18983;SDS011;9626;52.552;13.436;2023-04-24T07:54:41;0.87;;;0.70;;
18983;SDS011;9626;52.552;13.436;2023-04-24T07:57:08;0.70;;;0.70;;
18983;SDS011;9626;52.552;13.436;2023-04-24T07:59:34;0.50;;;0.50;;
18983;SDS011;9626;52.552;13.436;2023-04-24T08:02:00;1.50;;;0.70;;
18983;SDS011;9626;52.552;13.436;2023-04-24T08:04:27;1.67;;;0.77;;
18983;SDS011;9626;52.552;13.436;2023-04-24T08:06:53;4.27;;;1.00;;
18983;SDS011;9626;52.552;13.436;2023-04-24T08:09:19;2.43;;;0.70;;
18983;SDS011;9626;52.552;13.436;2023-04-24T08:11:45;1.00;;;0.70;;
18983;SDS011;9626;52.552;13.436;2023-04-24T08:14:11;0.93;;;0.70;;
18983;SDS011;9626;52.552;13.436;2023-04-24T08:16:38;1.80;;;0.70;;
18983;SDS011;9626;52.552;13.436;2023-04-24T08:19:04;2.53;;;0.67;;
18983;SDS011;9626;52.552;13.436;2023-04-24T08:21:30;1.43;;;1.00;;
18983;SDS011;9626;52.552;13.436;2023-04-24T08:23:57;1.87;;;0.90;;
18983;SDS011;9626;52.552;13.436;2023-04-24T08:26:23;0.97;;;0.73;;
18983;SDS011;9626;52.552;13.436;2023-04-24T08:28:49;0.80;;;0.60;;
18983;SDS011;9626;52.552;13.436;2023-04-24T08:31:15;2.10;;;0.80;;
18983;SDS011;9626;52.552;13.436;2023-04-24T08:33:41;2.10;;;0.50;;
18983;SDS011;9626;52.552;13.436;2023-04-24T08:36:10;0.60;;;0.60;;
18983;SDS011;9626;52.552;13.436;2023-04-24T08:38:36;2.93;;;0.60;;
18983;SDS011;9626;52.552;13.436;2023-04-24T08:41:02;1.43;;;0.50;;
18983;SDS011;9626;52.552;13.436;2023-04-24T08:43:30;0.60;;;0.60;;
18983;SDS011;9626;52.552;13.436;2023-04-24T08:45:59;1.23;;;0.60;;
18983;SDS011;9626;52.552;13.436;2023-04-24T08:48:26;0.57;;;0.40;;
18983;SDS011;9626;52.552;13.436;2023-04-24T08:50:53;0.70;;;0.70;;
18983;SDS011;9626;52.552;13.436;2023-04-24T08:53:19;0.63;;;0.60;;
18983;SDS011;9626;52.552;13.436;2023-04-24T08:55:46;0.50;;;0.50;;
18983;SDS011;9626;52.552;13.436;2023-04-24T08:58:14;0.63;;;0.50;;
18983;SDS011;9626;52.552;13.436;2023-04-24T09:00:42;1.10;;;0.40;;
18983;SDS011;9626;52.552;13.436;2023-04-24T09:03:15;2.43;;;0.67;;
18983;SDS011;9626;52.552;13.436;2023-04-24T09:05:42;3.10;;;0.73;;
18983;SDS011;9626;52.552;13.436;2023-04-24T09:08:11;0.93;;;0.53;;
18983;SDS011;9626;52.552;13.436;2023-04-24T09:10:39;0.57;;;0.57;;
18983;SDS011;9626;52.552;13.436;2023-04-24T09:13:06;1.00;;;0.70;;
18983;SDS011;9626;52.552;13.436;2023-04-24T09:15:35;0.70;;;0.43;;
18983;SDS011;9626;52.552;13.436;2023-04-24T09:18:01;1.37;;;0.80;;
18983;SDS011;9626;52.552;13.436;2023-04-24T09:20:28;2.17;;;0.57;;
18983;SDS011;9626;52.552;13.436;2023-04-24T09:22:54;2.77;;;0.50;;
18983;SDS011;9626;52.552;13.436;2023-04-24T09:25:22;0.40;;;0.40;;
18983;SDS011;9626;52.552;13.436;2023-04-24T09:27:48;0.63;;;0.60;;
18983;SDS011;9626;52.552;13.436;2023-04-24T09:30:21;0.70;;;0.50;;
18983;SDS011;9626;52.552;13.436;2023-04-24T09:32:48;0.93;;;0.70;;
18983;SDS011;9626;52.552;13.436;2023-04-24T09:35:14;0.83;;;0.50;;
18983;SDS011;9626;52.552;13.436;2023-04-24T09:37:42;2.30;;;0.70;;
18983;SDS011;9626;52.552;13.436;2023-04-24T09:40:18;2.03;;;0.83;;
18983;SDS011;9626;52.552;13.436;2023-04-24T09:42:53;1.70;;;0.90;;
18983;SDS011;9626;52.552;13.436;2023-04-24T09:45:22;2.40;;;0.80;;
18983;SDS011;9626;52.552;13.436;2023-04-24T09:47:53;1.40;;;0.70;;
18983;SDS011;9626;52.552;13.436;2023-04-24T09:50:22;0.80;;;0.60;;
18983;SDS011;9626;52.552;13.436;2023-04-24T09:52:59;0.97;;;0.73;;
18983;SDS011;9626;52.552;13.436;2023-04-24T09:55:29;4.57;;;1.00;;
18983;SDS011;9626;52.552;13.436;2023-04-24T09:57:59;2.97;;;0.80;;
18983;SDS011;9626;52.552;13.436;2023-04-24T10:00:27;0.73;;;0.73;;
18983;SDS011;9626;52.552;13.436;2023-04-24T10:02:57;1.00;;;1.00;;
18983;SDS011;9626;52.552;13.436;2023-04-24T10:05:28;2.30;;;0.90;;
18983;SDS011;9626;52.552;13.436;2023-04-24T10:07:57;1.07;;;0.80;;
18983;SDS011;9626;52.552;13.436;2023-04-24T10:10:29;1.00;;;0.70;;
18983;SDS011;9626;52.552;13.436;2023-04-24T10:12:56;2.20;;;0.60;;
18983;SDS011;9626;52.552;13.436;2023-04-24T10:15:22;1.80;;;0.90;;
18983;SDS011;9626;52.552;13.436;2023-04-24T10:17:49;2.10;;;1.00;;
18983;SDS011;9626;52.552;13.436;2023-04-24T10:20:19;2.67;;;0.50;;
18983;SDS011;9626;52.552;13.436;2023-04-24T10:22:47;0.53;;;0.43;;
18983;SDS011;9626;52.552;13.436;2023-04-24T10:25:21;0.90;;;0.77;;
18983;SDS011;9626;52.552;13.436;2023-04-24T10:27:50;1.40;;;0.80;;
18983;SDS011;9626;52.552;13.436;2023-04-24T10:30:18;1.87;;;0.63;;
18983;SDS011;9626;52.552;13.436;2023-04-24T10:32:45;3.30;;;0.60;;
18983;SDS011;9626;52.552;13.436;2023-04-24T10:35:12;1.80;;;0.80;;
18983;SDS011;9626;52.552;13.436;2023-04-24T10:37:41;0.70;;;0.60;;
18983;SDS011;9626;52.552;13.436;2023-04-24T10:40:10;0.63;;;0.60;;
18983;SDS011;9626;52.552;13.436;2023-04-24T10:42:40;3.67;;;0.70;;
18983;SDS011;9626;52.552;13.436;2023-04-24T10:45:27;3.40;;;0.70;;
18983;SDS011;9626;52.552;13.436;2023-04-24T10:48:09;1.20;;;0.80;;
18983;SDS011;9626;52.552;13.436;2023-04-24T10:50:43;3.37;;;1.00;;
18983;SDS011;9626;52.552;13.436;2023-04-24T10:53:17;4.27;;;1.10;;
18983;SDS011;9626;52.552;13.436;2023-04-24T10:55:46;1.20;;;1.00;;
18983;SDS011;9626;52.552;13.436;2023-04-24T10:58:16;1.70;;;0.90;;
18983;SDS011;9626;52.552;13.436;2023-04-24T11:00:57;9.40;;;0.80;;
18983;SDS011;9626;52.552;13.436;2023-04-24T11:03:25;1.17;;;0.73;;
18983;SDS011;9626;52.552;13.436;2023-04-24T11:08:43;1.10;;;0.60;;
18983;SDS011;9626;52.552;13.436;2023-04-24T11:11:11;1.60;;;0.90;;
18983;SDS011;9626;52.552;13.436;2023-04-24T11:14:00;0.80;;;0.80;;
18983;SDS011;9626;52.552;13.436;2023-04-24T11:19:05;2.50;;;0.80;;
18983;SDS011;9626;52.552;13.436;2023-04-24T11:21:45;1.40;;;0.73;;
18983;SDS011;9626;52.552;13.436;2023-04-24T11:27:06;1.17;;;0.60;;
18983;SDS011;9626;52.552;13.436;2023-04-24T11:29:58;1.33;;;0.60;;
18983;SDS011;9626;52.552;13.436;2023-04-24T11:34:57;2.87;;;0.70;;
18983;SDS011;9626;52.552;13.436;2023-04-24T11:37:28;1.37;;;0.80;;
18983;SDS011;9626;52.552;13.436;2023-04-24T11:40:06;1.77;;;0.97;;
18983;SDS011;9626;52.552;13.436;2023-04-24T11:42:37;3.47;;;0.60;;
18983;SDS011;9626;52.552;13.436;2023-04-24T11:45:08;0.80;;;0.70;;
18983;SDS011;9626;52.552;13.436;2023-04-24T11:47:38;2.43;;;1.20;;
18983;SDS011;9626;52.552;13.436;2023-04-24T11:50:06;1.83;;;0.80;;
18983;SDS011;9626;52.552;13.436;2023-04-24T11:52:36;4.70;;;0.77;;
18983;SDS011;9626;52.552;13.436;2023-04-24T11:55:03;1.43;;;0.70;;
18983;SDS011;9626;52.552;13.436;2023-04-24T11:57:30;0.73;;;0.50;;
18983;SDS011;9626;52.552;13.436;2023-04-24T12:00:02;2.10;;;0.60;;
18983;SDS011;9626;52.552;13.436;2023-04-24T12:02:30;0.97;;;0.60;;
18983;SDS011;9626;52.552;13.436;2023-04-24T12:04:56;2.77;;;0.70;;
18983;SDS011;9626;52.552;13.436;2023-04-24T12:07:23;1.07;;;0.50;;
18983;SDS011;9626;52.552;13.436;2023-04-24T12:09:55;1.07;;;0.63;;
18983;SDS011;9626;52.552;13.436;2023-04-24T12:12:24;1.50;;;0.60;;
18983;SDS011;9626;52.552;13.436;2023-04-24T12:14:52;2.73;;;0.60;;
18983;SDS011;9626;52.552;13.436;2023-04-24T12:17:27;1.90;;;0.90;;
18983;SDS011;9626;52.552;13.436;2023-04-24T12:19:58;2.07;;;0.90;;
18983;SDS011;9626;52.552;13.436;2023-04-24T12:22:26;1.80;;;0.60;;
18983;SDS011;9626;52.552;13.436;2023-04-24T12:24:56;2.30;;;0.80;;
18983;SDS011;9626;52.552;13.436;2023-04-24T12:27:23;1.03;;;0.70;;
18983;SDS011;9626;52.552;13.436;2023-04-24T12:29:53;1.20;;;0.90;;
18983;SDS011;9626;52.552;13.436;2023-04-24T12:32:21;1.77;;;0.90;;
18983;SDS011;9626;52.552;13.436;2023-04-24T12:34:47;1.00;;;0.90;;
18983;SDS011;9626;52.552;13.436;2023-04-24T12:37:15;1.63;;;1.00;;
18983;SDS011;9626;52.552;13.436;2023-04-24T12:40:00;2.40;;;0.90;;
18983;SDS011;9626;52.552;13.436;2023-04-24T12:42:34;3.20;;;1.10;;
18983;SDS011;9626;52.552;13.436;2023-04-24T12:45:02;1.40;;;0.73;;
18983;SDS011;9626;52.552;13.436;2023-04-24T12:47:31;1.90;;;0.73;;
18983;SDS011;9626;52.552;13.436;2023-04-24T12:49:59;0.70;;;0.50;;
18983;SDS011;9626;52.552;13.436;2023-04-24T12:52:26;0.80;;;0.50;;
18983;SDS011;9626;52.552;13.436;2023-04-24T12:54:56;2.93;;;0.80;;
18983;SDS011;9626;52.552;13.436;2023-04-24T12:57:24;2.10;;;0.80;;
18983;SDS011;9626;52.552;13.436;2023-04-24T12:59:53;3.77;;;0.70;;
18983;SDS011;9626;52.552;13.436;2023-04-24T13:02:20;3.23;;;0.87;;
18983;SDS011;9626;52.552;13.436;2023-04-24T13:04:47;0.80;;;0.80;;
18983;SDS011;9626;52.552;13.436;2023-04-24T13:07:14;1.67;;;0.50;;
18983;SDS011;9626;52.552;13.436;2023-04-24T13:09:41;1.30;;;0.73;;
18983;SDS011;9626;52.552;13.436;2023-04-24T13:12:08;0.83;;;0.67;;
18983;SDS011;9626;52.552;13.436;2023-04-24T13:14:35;1.67;;;0.70;;
18983;SDS011;9626;52.552;13.436;2023-04-24T13:17:02;1.13;;;0.80;;
18983;SDS011;9626;52.552;13.436;2023-04-24T13:19:29;1.07;;;0.80;;
18983;SDS011;9626;52.552;13.436;2023-04-24T13:22:00;3.63;;;0.80;;
18983;SDS011;9626;52.552;13.436;2023-04-24T13:24:27;1.00;;;0.70;;
18983;SDS011;9626;52.552;13.436;2023-04-24T13:26:53;1.40;;;0.70;;
18983;SDS011;9626;52.552;13.436;2023-04-24T13:29:19;1.37;;;0.73;;
18983;SDS011;9626;52.552;13.436;2023-04-24T13:31:46;2.60;;;1.00;;
18983;SDS011;9626;52.552;13.436;2023-04-24T13:34:12;2.63;;;0.70;;
18983;SDS011;9626;52.552;13.436;2023-04-24T13:36:39;1.90;;;0.60;;
18983;SDS011;9626;52.552;13.436;2023-04-24T13:39:05;1.70;;;0.50;;
18983;SDS011;9626;52.552;13.436;2023-04-24T13:41:32;2.10;;;0.50;;
18983;SDS011;9626;52.552;13.436;2023-04-24T13:43:59;1.07;;;0.60;;
18983;SDS011;9626;52.552;13.436;2023-04-24T13:46:25;2.90;;;0.80;;
18983;SDS011;9626;52.552;13.436;2023-04-24T13:48:51;1.00;;;0.90;;
18983;SDS011;9626;52.552;13.436;2023-04-24T13:51:18;1.23;;;0.90;;
18983;SDS011;9626;52.552;13.436;2023-04-24T13:53:44;2.27;;;0.93;;
18983;SDS011;9626;52.552;13.436;2023-04-24T13:56:10;1.80;;;0.60;;
18983;SDS011;9626;52.552;13.436;2023-04-24T13:58:38;1.10;;;0.60;;
18983;SDS011;9626;52.552;13.436;2023-04-24T14:01:04;1.47;;;0.80;;
18983;SDS011;9626;52.552;13.436;2023-04-24T14:03:30;3.30;;;0.67;;
18983;SDS011;9626;52.552;13.436;2023-04-24T14:05:56;2.90;;;0.73;;
18983;SDS011;9626;52.552;13.436;2023-04-24T14:08:23;1.70;;;0.80;;
18983;SDS011;9626;52.552;13.436;2023-04-24T14:10:49;0.60;;;0.60;;
18983;SDS011;9626;52.552;13.436;2023-04-24T14:13:16;1.93;;;1.00;;
18983;SDS011;9626;52.552;13.436;2023-04-24T14:15:42;2.17;;;0.70;;
18983;SDS011;9626;52.552;13.436;2023-04-24T14:18:08;1.07;;;0.83;;
18983;SDS011;9626;52.552;13.436;2023-04-24T14:20:34;1.70;;;0.70;;
18983;SDS011;9626;52.552;13.436;2023-04-24T14:23:00;1.30;;;0.67;;
18983;SDS011;9626;52.552;13.436;2023-04-24T14:25:26;1.40;;;0.80;;
18983;SDS011;9626;52.552;13.436;2023-04-24T14:27:52;1.50;;;0.83;;
18983;SDS011;9626;52.552;13.436;2023-04-24T14:30:18;4.13;;;1.00;;
18983;SDS011;9626;52.552;13.436;2023-04-24T14:32:45;1.37;;;0.80;;
18983;SDS011;9626;52.552;13.436;2023-04-24T14:35:11;2.60;;;0.70;;
18983;SDS011;9626;52.552;13.436;2023-04-24T14:37:37;1.20;;;0.90;;
18983;SDS011;9626;52.552;13.436;2023-04-24T14:40:08;6.17;;;1.17;;
18983;SDS011;9626;52.552;13.436;2023-04-24T14:42:37;1.63;;;0.80;;
18983;SDS011;9626;52.552;13.436;2023-04-24T14:45:03;0.70;;;0.70;;
18983;SDS011;9626;52.552;13.436;2023-04-24T14:47:29;1.10;;;0.90;;
18983;SDS011;9626;52.552;13.436;2023-04-24T14:49:55;2.20;;;0.60;;
18983;SDS011;9626;52.552;13.436;2023-04-24T14:52:21;1.20;;;0.80;;
18983;SDS011;9626;52.552;13.436;2023-04-24T14:54:47;1.70;;;0.80;;
18983;SDS011;9626;52.552;13.436;2023-04-24T14:57:13;1.47;;;1.03;;
18983;SDS011;9626;52.552;13.436;2023-04-24T14:59:39;4.23;;;0.83;;